createdAt,value
2018-01-07T00:02:02.141Z,95793.44
2018-01-07T00:04:29.727Z,95786.56
2018-01-07T00:06:57.341Z,95794.29
2018-01-07T00:09:24.892Z,95799.32
2018-01-07T00:11:52.482Z,95805.12
2018-01-07T00:14:20.064Z,95795.09
2018-01-07T00:16:47.641Z,95800.39
2018-01-07T00:19:15.197Z,95802.27
2018-01-07T00:21:42.832Z,95807.88
2018-01-07T00:24:10.492Z,95806.20
2018-01-07T00:26:38.054Z,95811.50
2018-01-07T00:29:05.821Z,95814.39
2018-01-07T00:31:33.380Z,95814.30
2018-01-07T00:34:00.972Z,95815.64
2018-01-07T00:36:28.591Z,95818.63
2018-01-07T00:38:56.130Z,95822.13
2018-01-07T00:41:23.732Z,95828.95
2018-01-07T00:43:51.324Z,95825.11
2018-01-07T00:46:18.891Z,95826.61
2018-01-07T00:48:46.503Z,95832.60
2018-01-07T00:51:14.373Z,95839.69
2018-01-07T00:53:41.919Z,95840.53
2018-01-07T00:56:09.509Z,95842.80
2018-01-07T00:58:37.115Z,95842.53
2018-01-07T01:01:04.707Z,95845.97
2018-01-07T01:03:32.595Z,95847.69
2018-01-07T01:06:00.217Z,95852.17
2018-01-07T01:08:27.802Z,95857.38
2018-01-07T01:10:55.402Z,95865.06
2018-01-07T01:13:22.993Z,95863.95
2018-01-07T01:21:31.508Z,95874.68
2018-01-07T01:23:59.118Z,95877.46
2018-01-07T01:26:26.679Z,95881.16
2018-01-07T01:28:54.277Z,95884.53
2018-01-07T01:31:21.843Z,95884.94
2018-01-07T01:33:49.633Z,95885.89
2018-01-07T01:36:17.199Z,95887.80
2018-01-07T01:38:44.766Z,95889.61
2018-01-07T01:41:12.815Z,95894.81
2018-01-07T01:43:40.397Z,95896.06
2018-01-07T01:46:07.971Z,95903.33
2018-01-07T01:48:35.591Z,95908.37
2018-01-07T01:51:03.234Z,95912.74
2018-01-07T01:53:30.822Z,95907.52
2018-01-07T01:55:58.417Z,95915.01
2018-01-07T01:58:26.005Z,95914.87
2018-01-07T02:00:53.663Z,95921.53
2018-01-07T02:03:21.253Z,95921.54
2018-01-07T02:05:48.813Z,95923.47
2018-01-07T02:08:16.410Z,95921.28
2018-01-07T02:10:44.038Z,95920.41
2018-01-07T02:13:11.966Z,95921.70
2018-01-07T02:15:39.522Z,95924.53
2018-01-07T02:18:07.145Z,95916.28
2018-01-07T02:20:34.727Z,95928.19
2018-01-07T02:23:02.377Z,95928.47
2018-01-07T02:25:29.953Z,95933.17
2018-01-07T02:27:57.550Z,95940.42
2018-01-07T02:30:25.162Z,95940.98
2018-01-07T02:32:52.721Z,95947.00
2018-01-07T02:35:20.621Z,95943.00
2018-01-07T02:37:48.222Z,95942.39
2018-01-07T02:40:15.842Z,95936.16
2018-01-07T02:42:43.445Z,95939.40
2018-01-07T02:45:11.450Z,95945.51
2018-01-07T02:47:39.896Z,95948.27
2018-01-07T02:50:07.514Z,95950.97
2018-01-07T02:52:35.445Z,95954.75
2018-01-07T02:55:03.484Z,95960.94
2018-01-07T02:57:31.402Z,95970.27
2018-01-07T02:59:59.383Z,95976.14
2018-01-07T03:02:26.942Z,95971.55
2018-01-07T03:04:54.555Z,95964.33
2018-01-07T03:07:22.564Z,95961.48
2018-01-07T03:09:50.126Z,95958.28
2018-01-07T03:12:17.700Z,95962.20
2018-01-07T03:14:45.389Z,95961.06
2018-01-07T03:17:13.458Z,95966.61
2018-01-07T03:19:40.996Z,95976.11
2018-01-07T03:22:08.635Z,95974.50
2018-01-07T03:24:36.178Z,95977.52
2018-01-07T03:27:04.473Z,95981.61
2018-01-07T03:29:32.109Z,95984.84
2018-01-07T03:31:59.795Z,95981.76
2018-01-07T03:34:27.611Z,95986.42
2018-01-07T03:36:56.662Z,95986.35
2018-01-07T03:39:24.259Z,95991.20
2018-01-07T03:41:51.811Z,95998.45
2018-01-07T03:44:19.388Z,95990.72
2018-01-07T03:46:46.981Z,95992.30
2018-01-07T03:49:14.864Z,95986.83
2018-01-07T03:51:42.454Z,95990.67
2018-01-07T03:54:10.028Z,95995.36
2018-01-07T03:56:37.602Z,95990.38
2018-01-07T03:59:05.208Z,95991.11
2018-01-07T04:01:32.765Z,95993.64
2018-01-07T04:04:00.305Z,96001.38
2018-01-07T04:06:27.938Z,96009.21
2018-01-07T04:08:55.478Z,96002.84
2018-01-07T04:11:23.061Z,96002.67
2018-01-07T04:13:50.672Z,96007.16
2018-01-07T04:16:18.233Z,96009.34
2018-01-07T04:18:45.793Z,96021.64
2018-01-07T04:21:13.383Z,96018.02
2018-01-07T04:23:40.987Z,96029.02
2018-01-07T04:26:08.558Z,96031.76
2018-01-07T04:28:36.126Z,96027.75
2018-01-07T04:31:03.710Z,96029.77
2018-01-07T04:33:31.772Z,96027.16
2018-01-07T04:35:59.567Z,96024.36
2018-01-07T04:38:27.109Z,96025.65
2018-01-07T04:40:54.664Z,96025.31
2018-01-07T04:43:22.240Z,96022.55
2018-01-07T04:45:49.821Z,96029.42
2018-01-07T04:48:17.395Z,96032.28
2018-01-07T04:50:45.015Z,96032.70
2018-01-07T04:53:12.566Z,96044.11
2018-01-07T04:55:40.158Z,96048.98
2018-01-07T04:58:07.802Z,96053.55
2018-01-07T05:00:35.380Z,96055.17
2018-01-07T05:03:02.959Z,96060.41
2018-01-07T05:05:30.537Z,96064.07
2018-01-07T05:07:58.098Z,96063.64
2018-01-07T05:10:25.660Z,96068.95
2018-01-07T05:12:53.315Z,96070.72
2018-01-07T05:15:20.868Z,96078.89
2018-01-07T05:17:48.434Z,96076.63
2018-01-07T05:20:16.054Z,96083.98
2018-01-07T05:22:43.625Z,96082.83
2018-01-07T05:25:11.670Z,96085.69
2018-01-07T05:27:39.300Z,96087.61
2018-01-07T05:30:06.879Z,96087.95
2018-01-07T05:32:34.453Z,96085.77
2018-01-07T05:35:02.055Z,96086.58
2018-01-07T05:37:29.887Z,96094.34
2018-01-07T05:39:57.452Z,96090.66
2018-01-07T05:42:25.766Z,96094.21
2018-01-07T05:44:53.329Z,96099.73
2018-01-07T05:47:20.880Z,96106.91
2018-01-07T05:49:48.450Z,96111.63
2018-01-07T05:52:16.160Z,96119.39
2018-01-07T05:57:15.471Z,96120.38
2018-01-07T05:59:43.038Z,96127.38
2018-01-07T06:02:10.588Z,96130.84
2018-01-07T06:04:38.145Z,96132.30
2018-01-07T06:07:05.745Z,96129.94
2018-01-07T06:09:33.783Z,96136.39
2018-01-07T06:12:01.357Z,96135.23
2018-01-07T06:14:28.913Z,96147.19
2018-01-07T06:16:56.470Z,96149.15
2018-01-07T06:19:24.114Z,96154.55
2018-01-07T06:21:51.671Z,96163.41
2018-01-07T06:24:19.225Z,96165.58
2018-01-07T06:26:46.842Z,96173.08
2018-01-07T06:29:14.409Z,96177.24
2018-01-07T06:31:41.977Z,96182.20
2018-01-07T06:34:09.625Z,96190.97
2018-01-07T06:36:37.220Z,96188.73
2018-01-07T06:39:04.829Z,96189.93
2018-01-07T06:41:47.786Z,96195.00
2018-01-07T06:44:15.362Z,96196.02
2018-01-07T06:46:42.937Z,96203.00
2018-01-07T06:49:10.818Z,96206.36
2018-01-07T06:51:38.407Z,96221.86
2018-01-07T06:54:06.063Z,96228.17
2018-01-07T06:56:33.649Z,96229.33
2018-01-07T06:59:01.204Z,96238.31
2018-01-07T07:01:30.868Z,96237.30
2018-01-07T07:03:59.067Z,96246.12
2018-01-07T07:06:26.895Z,96244.77
2018-01-07T07:08:54.494Z,96243.83
2018-01-07T07:11:22.071Z,96243.44
2018-01-07T07:13:49.815Z,96244.56
2018-01-07T07:16:17.415Z,96249.41
2018-01-07T07:18:45.046Z,96256.29
2018-01-07T07:21:14.810Z,96257.89
2018-01-07T07:23:42.384Z,96272.75
2018-01-07T07:26:09.960Z,96278.02
2018-01-07T07:28:37.521Z,96281.69
2018-01-07T07:31:05.114Z,96287.28
2018-01-07T07:33:32.709Z,96291.21
2018-01-07T07:36:01.805Z,96288.64
2018-01-07T07:38:29.403Z,96293.16
2018-01-07T07:40:56.987Z,96296.86
2018-01-07T07:43:24.584Z,96295.99
2018-01-07T07:45:52.124Z,96298.14
2018-01-07T07:48:19.820Z,96307.80
2018-01-07T07:50:47.806Z,96311.96
2018-01-07T07:53:15.572Z,96318.58
2018-01-07T07:55:43.133Z,96316.69
2018-01-07T07:58:10.700Z,96312.84
2018-01-07T08:00:38.253Z,96311.58
2018-01-07T08:03:05.815Z,96306.88
2018-01-07T08:05:33.384Z,96308.80
2018-01-07T08:08:00.968Z,96314.00
2018-01-07T08:10:28.546Z,96317.16
2018-01-07T08:12:56.127Z,96318.20
2018-01-07T08:15:23.700Z,96327.39
2018-01-07T08:17:51.274Z,96330.34
2018-01-07T08:20:18.873Z,96334.89
2018-01-07T08:22:46.416Z,96337.53
2018-01-07T08:25:13.961Z,96334.11
2018-01-07T08:27:41.581Z,96334.12
2018-01-07T08:30:09.164Z,96339.42
2018-01-07T08:32:36.750Z,96337.95
2018-01-07T08:35:04.340Z,96338.75
2018-01-07T08:37:31.915Z,96341.48
2018-01-07T08:39:59.503Z,96346.90
2018-01-07T08:42:27.071Z,96347.82
2018-01-07T08:44:54.667Z,96354.31
2018-01-07T08:47:22.334Z,96350.73
2018-01-07T08:49:50.487Z,96354.10
2018-01-07T08:52:18.048Z,96355.70
2018-01-07T08:54:45.603Z,96352.70
2018-01-07T08:57:13.208Z,96355.89
2018-01-07T08:59:40.769Z,96359.81
2018-01-07T09:02:08.453Z,96355.41
2018-01-07T09:04:36.065Z,96357.36
2018-01-07T09:07:03.621Z,96356.97
2018-01-07T09:09:32.220Z,96360.67
2018-01-07T09:11:59.833Z,96364.45
2018-01-07T09:14:27.388Z,96369.98
2018-01-07T09:16:55.020Z,96366.17
2018-01-07T09:19:22.591Z,96368.85
2018-01-07T09:21:50.162Z,96366.48
2018-01-07T09:24:17.800Z,96363.50
2018-01-07T09:26:45.367Z,96360.77
2018-01-07T09:29:12.930Z,96363.91
2018-01-07T09:34:30.491Z,96362.70
2018-01-07T09:36:58.070Z,96358.48
2018-01-07T09:39:25.676Z,96352.77
2018-01-07T09:41:53.284Z,96355.94
2018-01-07T09:44:21.097Z,96358.84
2018-01-07T09:46:48.834Z,96354.52
2018-01-07T09:49:16.478Z,96350.39
2018-01-07T09:51:44.050Z,96352.01
2018-01-07T09:54:11.621Z,96357.37
2018-01-07T09:56:39.186Z,96366.50
2018-01-07T09:59:06.749Z,96367.55
2018-01-07T10:01:34.315Z,96362.34
2018-01-07T10:04:01.922Z,96359.93
2018-01-07T10:06:29.507Z,96363.77
2018-01-07T10:08:57.083Z,96363.52
2018-01-07T10:11:24.666Z,96372.03
2018-01-07T10:13:52.261Z,96370.19
2018-01-07T10:16:19.867Z,96376.23
2018-01-07T10:18:48.138Z,96374.33
2018-01-07T10:21:15.711Z,96372.05
2018-01-07T10:23:43.262Z,96377.44
2018-01-07T10:26:11.396Z,96382.62
2018-01-07T10:28:39.288Z,96394.19
2018-01-07T10:31:07.299Z,96392.92
2018-01-07T10:33:35.938Z,96393.45
2018-01-07T10:36:03.755Z,96396.59
2018-01-07T10:38:31.422Z,96408.72
2018-01-07T10:40:59.046Z,96415.95
2018-01-07T10:43:26.613Z,96415.56
2018-01-07T10:45:54.177Z,96411.73
2018-01-07T10:48:22.826Z,96411.17
2018-01-07T10:50:50.382Z,96408.42
2018-01-07T10:53:17.931Z,96411.73
2018-01-07T10:55:45.528Z,96417.80
2018-01-07T10:58:13.086Z,96416.17
2018-01-07T11:00:46.187Z,96413.58
2018-01-07T11:03:14.026Z,96412.81
2018-01-07T11:05:52.916Z,96409.91
2018-01-07T11:08:20.528Z,96404.88
2018-01-07T11:10:48.129Z,96405.89
2018-01-07T11:13:15.822Z,96408.69
2018-01-07T11:15:43.473Z,96410.88
2018-01-07T11:18:11.035Z,96415.97
2018-01-07T11:20:38.594Z,96416.20
2018-01-07T11:23:06.215Z,96420.64
2018-01-07T11:25:33.905Z,96418.56
2018-01-07T11:28:01.485Z,96415.11
2018-01-07T11:30:29.183Z,96427.70
2018-01-07T11:32:57.551Z,96425.17
2018-01-07T11:35:25.169Z,96423.44
2018-01-07T11:37:52.749Z,96425.87
2018-01-07T11:40:20.319Z,96419.98
2018-01-07T11:42:47.911Z,96424.89
2018-01-07T11:45:15.854Z,96424.00
2018-01-07T11:47:43.444Z,96413.75
2018-01-07T11:50:11.001Z,96411.66
2018-01-07T11:52:38.817Z,96405.70
2018-01-07T11:55:07.520Z,96402.35
2018-01-07T11:57:36.204Z,96394.94
2018-01-07T12:00:05.049Z,96397.91
2018-01-07T12:02:32.639Z,96402.05
2018-01-07T12:05:00.225Z,96408.38
2018-01-07T12:07:28.374Z,96402.58
2018-01-07T12:09:55.975Z,96398.44
2018-01-07T12:12:23.547Z,96396.75
2018-01-07T12:14:51.141Z,96396.92
2018-01-07T12:17:18.726Z,96399.30
2018-01-07T12:19:46.308Z,96395.78
2018-01-07T12:22:13.959Z,96403.19
2018-01-07T12:24:41.529Z,96400.91
2018-01-07T12:27:09.128Z,96396.39
2018-01-07T12:29:36.731Z,96399.33
2018-01-07T12:32:04.305Z,96396.10
2018-01-07T12:34:31.876Z,96400.50
2018-01-07T12:36:59.472Z,96396.33
2018-01-07T12:42:00.804Z,96419.19
2018-01-07T12:44:28.424Z,96414.22
2018-01-07T12:46:56.047Z,96417.01
2018-01-07T12:49:23.975Z,96423.27
2018-01-07T12:51:51.554Z,96414.62
2018-01-07T12:54:19.159Z,96419.53
2018-01-07T12:56:46.715Z,96416.47
2018-01-07T12:59:14.366Z,96417.17
2018-01-07T13:01:41.965Z,96419.30
2018-01-07T13:04:10.045Z,96431.41
2018-01-07T13:06:37.616Z,96448.11
2018-01-07T13:09:06.317Z,96434.88
2018-01-07T13:11:33.952Z,96456.45
2018-01-07T13:14:02.373Z,96466.65
2018-01-07T13:16:33.249Z,96474.84
2018-01-07T13:19:05.410Z,96476.70
2018-01-07T13:21:32.991Z,96479.84
2018-01-07T13:24:00.554Z,96476.38
2018-01-07T13:26:28.469Z,96473.30
2018-01-07T13:28:56.040Z,96470.08
2018-01-07T13:31:24.092Z,96474.63
2018-01-07T13:33:51.658Z,96474.86
2018-01-07T13:36:19.243Z,96469.67
2018-01-07T13:38:46.831Z,96468.30
2018-01-07T13:41:14.800Z,96466.71
2018-01-07T13:43:42.418Z,96466.88
2018-01-07T13:46:10.414Z,96455.11
2018-01-07T13:48:37.978Z,96455.87
2018-01-07T13:51:05.818Z,96461.34
2018-01-07T13:53:33.383Z,96459.41
2018-01-07T13:56:00.955Z,96466.03
2018-01-07T13:58:35.152Z,96478.47
2018-01-07T14:01:02.750Z,96488.19
2018-01-07T14:03:30.362Z,96491.67
2018-01-07T14:05:57.977Z,96500.30
2018-01-07T14:08:26.388Z,96500.55
2018-01-07T14:10:53.965Z,96495.45
2018-01-07T14:13:21.726Z,96495.30
2018-01-07T14:15:49.295Z,96489.47
2018-01-07T14:18:16.898Z,96478.83
2018-01-07T14:20:44.689Z,96486.81
2018-01-07T14:23:13.241Z,96494.78
2018-01-07T14:25:41.539Z,96498.31
2018-01-07T14:28:09.422Z,96501.42
2018-01-07T14:30:37.060Z,96503.11
2018-01-07T14:33:04.767Z,96497.23
2018-01-07T14:35:32.942Z,96500.69
2018-01-07T14:38:00.584Z,96504.01
2018-01-07T14:40:28.280Z,96513.08
2018-01-07T14:42:55.942Z,96532.26
2018-01-07T14:45:23.688Z,96521.65
2018-01-07T14:47:51.454Z,96523.94
2018-01-07T14:50:19.084Z,96536.72
2018-01-07T14:53:03.574Z,96549.06
2018-01-07T14:55:31.164Z,96544.86
2018-01-07T14:57:58.788Z,96555.60
2018-01-07T15:00:26.589Z,96555.67
2018-01-07T15:02:54.611Z,96561.63
2018-01-07T15:05:22.274Z,96569.20
2018-01-07T15:07:49.945Z,96581.03
2018-01-07T15:10:17.802Z,96583.08
2018-01-07T15:12:45.496Z,96575.42
2018-01-07T15:15:13.748Z,96589.38
2018-01-07T15:17:41.425Z,96602.42
2018-01-07T15:20:09.037Z,96600.86
2018-01-07T15:22:36.699Z,96596.16
2018-01-07T15:25:04.270Z,96604.56
2018-01-07T15:27:31.876Z,96604.20
2018-01-07T15:30:00.124Z,96605.86
2018-01-07T15:35:18.695Z,96607.94
2018-01-07T15:37:46.287Z,96608.20
2018-01-07T15:40:14.160Z,96618.83
2018-01-07T15:42:43.639Z,96626.50
2018-01-07T15:45:13.847Z,96638.15
2018-01-07T15:47:41.605Z,96639.77
2018-01-07T15:50:09.316Z,96633.39
2018-01-07T15:52:37.180Z,96634.03
2018-01-07T15:55:05.152Z,96642.55
2018-01-07T15:57:33.033Z,96649.55
2018-01-07T16:00:00.991Z,96649.26
2018-01-07T16:02:29.877Z,96645.62
2018-01-07T16:04:57.769Z,96648.36
2018-01-07T16:07:25.757Z,96645.97
2018-01-07T16:09:53.404Z,96646.38
2018-01-07T16:12:21.061Z,96645.84
2018-01-07T16:14:48.701Z,96636.14
2018-01-07T16:17:16.284Z,96631.03
2018-01-07T16:19:43.941Z,96637.38
2018-01-07T16:22:11.550Z,96638.10
2018-01-07T16:24:39.126Z,96630.66
2018-01-07T16:27:07.469Z,96624.28
2018-01-07T16:29:35.172Z,96634.17
2018-01-07T16:32:02.773Z,96636.39
2018-01-07T16:34:30.578Z,96648.52
2018-01-07T16:36:58.185Z,96652.52
2018-01-07T16:39:25.827Z,96657.17
2018-01-07T16:41:53.513Z,96651.06
2018-01-07T16:44:21.598Z,96653.16
2018-01-07T16:46:49.220Z,96656.68
2018-01-07T16:49:16.804Z,96645.30
2018-01-07T16:51:44.415Z,96648.81
2018-01-07T16:54:12.122Z,96648.44
2018-01-07T16:56:40.352Z,96658.46
2018-01-07T16:59:07.981Z,96658.59
2018-01-07T17:01:35.646Z,96649.53
2018-01-07T17:04:03.279Z,96660.73
2018-01-07T17:06:30.896Z,96663.91
2018-01-07T17:08:58.524Z,96667.06
2018-01-07T17:11:26.267Z,96672.59
2018-01-07T17:13:53.905Z,96678.00
2018-01-07T17:16:21.573Z,96677.40
2018-01-07T17:18:49.229Z,96675.66
2018-01-07T17:21:16.869Z,96677.59
2018-01-07T17:23:44.480Z,96679.08
2018-01-07T17:26:12.201Z,96682.83
2018-01-07T17:28:39.895Z,96679.63
2018-01-07T17:31:07.857Z,96683.19
2018-01-07T17:33:35.646Z,96690.01
2018-01-07T17:36:03.492Z,96690.98
2018-01-07T17:38:31.082Z,96702.22
2018-01-07T17:40:58.652Z,96694.48
2018-01-07T17:43:26.276Z,96699.14
2018-01-07T17:45:53.876Z,96717.28
2018-01-07T17:48:21.509Z,96715.30
2018-01-07T17:50:49.231Z,96714.58
2018-01-07T17:53:16.923Z,96720.47
2018-01-07T17:55:44.671Z,96727.74
2018-01-07T17:58:12.337Z,96715.02
2018-01-07T18:00:39.946Z,96719.62
2018-01-07T18:03:07.704Z,96723.00
2018-01-07T18:05:35.966Z,96719.41
2018-01-07T18:08:03.590Z,96712.85
2018-01-07T18:10:31.225Z,96720.15
2018-01-07T18:12:58.951Z,96716.56
2018-01-07T18:15:26.709Z,96713.66
2018-01-07T18:17:54.352Z,96718.29
2018-01-07T18:20:22.111Z,96712.83
2018-01-07T18:22:49.711Z,96713.24
2018-01-07T18:25:17.315Z,96715.16
2018-01-07T18:27:44.910Z,96725.70
2018-01-07T18:30:12.726Z,96719.69
2018-01-07T18:32:40.297Z,96713.75
2018-01-07T18:35:07.990Z,96716.68
2018-01-07T18:37:35.600Z,96726.97
2018-01-07T18:40:03.195Z,96723.27
2018-01-07T18:42:30.842Z,96724.56
2018-01-07T18:44:58.426Z,96721.80
2018-01-07T18:47:26.137Z,96721.38
2018-01-07T18:49:53.812Z,96720.50
2018-01-07T18:52:21.403Z,96718.75
2018-01-07T18:54:49.025Z,96727.19
2018-01-07T18:57:16.692Z,96727.19
2018-01-07T18:59:44.296Z,96718.23
2018-01-07T19:02:11.911Z,96726.97
2018-01-07T19:04:39.616Z,96726.37
2018-01-07T19:07:11.121Z,96724.52
2018-01-07T19:09:38.803Z,96719.12
2018-01-07T19:12:07.126Z,96724.94
2018-01-07T19:14:34.966Z,96727.97
2018-01-07T19:17:02.561Z,96732.72
2018-01-07T19:19:30.182Z,96728.89
2018-01-07T19:21:58.001Z,96730.76
2018-01-07T19:24:25.608Z,96730.84
2018-01-07T19:26:59.714Z,96730.76
2018-01-07T19:29:36.016Z,96740.21
2018-01-07T19:32:03.646Z,96736.89
2018-01-07T19:34:31.259Z,96731.66
2018-01-07T19:36:59.171Z,96731.49
2018-01-07T19:39:27.093Z,96734.62
2018-01-07T19:41:54.742Z,96738.55
2018-01-07T19:44:22.340Z,96743.45
2018-01-07T19:46:49.981Z,96741.21
2018-01-07T19:49:17.727Z,96740.25
2018-01-07T19:51:48.239Z,96745.67
2018-01-07T19:54:15.949Z,96746.11
2018-01-07T19:56:44.587Z,96744.97
2018-01-07T19:59:12.498Z,96748.93
2018-01-07T20:01:40.090Z,96749.79
2018-01-07T20:04:07.712Z,96751.08
2018-01-07T20:06:35.414Z,96746.22
2018-01-07T20:09:03.377Z,96746.83
2018-01-07T20:11:31.234Z,96742.84
2018-01-07T20:13:58.863Z,96740.13
2018-01-07T20:16:26.540Z,96747.09
2018-01-07T20:18:54.189Z,96746.87
2018-01-07T20:21:22.239Z,96747.48
2018-01-07T20:23:49.926Z,96746.16
2018-01-07T20:26:17.506Z,96750.69
2018-01-07T20:28:45.118Z,96755.59
2018-01-07T20:31:12.720Z,96755.70
2018-01-07T20:33:40.378Z,96760.74
2018-01-07T20:36:07.988Z,96759.58
2018-01-07T20:38:35.606Z,96757.74
2018-01-07T20:41:03.198Z,96758.28
2018-01-07T20:43:30.844Z,96767.80
2018-01-07T20:45:58.434Z,96766.97
2018-01-07T20:48:26.053Z,96761.20
2018-01-07T20:50:53.784Z,96758.91
2018-01-07T20:53:21.617Z,96777.68
2018-01-07T20:55:49.745Z,96767.54
2018-01-07T20:58:17.519Z,96763.31
2018-01-07T21:00:45.160Z,96773.75
2018-01-07T21:03:12.744Z,96775.19
2018-01-07T21:05:41.122Z,96772.38
2018-01-07T21:08:10.453Z,96770.36
2018-01-07T21:10:38.149Z,96763.54
2018-01-07T21:13:06.555Z,96766.86
2018-01-07T21:15:34.814Z,96767.20
2018-01-07T21:18:02.698Z,96764.39
2018-01-07T21:20:30.295Z,96765.94
2018-01-07T21:22:57.892Z,96768.05
2018-01-07T21:25:27.940Z,96769.15
2018-01-07T21:27:55.646Z,96767.90
2018-01-07T21:30:23.263Z,96773.14
2018-01-07T21:32:50.903Z,96766.85
2018-01-07T21:35:18.588Z,96775.63
2018-01-07T21:37:46.224Z,96769.16
2018-01-07T21:40:13.797Z,96761.45
2018-01-07T21:42:41.381Z,96772.16
2018-01-07T21:45:09.935Z,96767.98
2018-01-07T21:47:37.542Z,96765.34
2018-01-07T21:50:05.124Z,96765.91
2018-01-07T21:52:32.717Z,96749.94
2018-01-07T21:55:00.350Z,96753.57
2018-01-07T21:57:27.969Z,96750.58
2018-01-07T22:02:56.916Z,96767.48
2018-01-07T22:05:24.485Z,96763.27
2018-01-07T22:07:52.115Z,96774.80
2018-01-07T22:10:19.698Z,96765.41
2018-01-07T22:12:47.277Z,96761.30
2018-01-07T22:15:14.900Z,96764.89
2018-01-07T22:17:42.469Z,96763.59
2018-01-07T22:20:10.052Z,96766.08
2018-01-07T22:22:37.637Z,96763.80
2018-01-07T22:25:05.448Z,96767.33
2018-01-07T22:27:33.049Z,96771.42
2018-01-07T22:30:00.681Z,96767.58
2018-01-07T22:32:28.275Z,96764.88
2018-01-07T22:34:55.837Z,96769.51
2018-01-07T22:37:23.700Z,96773.95
2018-01-07T22:39:51.257Z,96773.61
2018-01-07T22:42:18.869Z,96776.51
2018-01-07T22:44:46.521Z,96770.91
2018-01-07T22:47:14.281Z,96776.16
2018-01-07T22:49:41.850Z,96787.02
2018-01-07T22:52:09.583Z,96780.28
2018-01-07T22:54:37.307Z,96785.59
2018-01-07T22:57:05.137Z,96789.20
2018-01-07T22:59:32.735Z,96791.51
2018-01-07T23:02:02.786Z,96788.11
2018-01-07T23:04:34.703Z,96781.16
2018-01-07T23:07:07.201Z,96792.28
2018-01-07T23:09:35.283Z,96788.13
2018-01-07T23:12:02.850Z,96788.39
2018-01-07T23:14:30.483Z,96782.88
2018-01-07T23:19:32.937Z,96783.30
2018-01-07T23:22:00.545Z,96777.00
2018-01-07T23:24:28.590Z,96774.81
2018-01-07T23:26:56.157Z,96767.68
2018-01-07T23:29:24.260Z,96773.03
2018-01-07T23:31:51.887Z,96782.61
2018-01-07T23:34:19.499Z,96781.07
2018-01-07T23:36:47.080Z,96781.67
2018-01-07T23:39:14.712Z,96775.32
2018-01-07T23:41:42.268Z,96775.19
2018-01-07T23:44:09.878Z,96769.09
2018-01-07T23:46:38.144Z,96773.82
2018-01-07T23:49:05.802Z,96780.05
2018-01-07T23:51:35.008Z,96784.66
2018-01-07T23:54:02.887Z,96783.87
2018-01-07T23:56:30.617Z,96785.63
2018-01-07T23:58:58.457Z,96778.70
